createdAt,value
2023-11-10T00:00:01.902Z,94271.47
2023-11-10T00:02:31.243Z,94263.94
2023-11-10T00:04:59.414Z,94271.38
2023-11-10T00:07:29.870Z,94270.06
2023-11-10T00:09:57.754Z,94255.63
2023-11-10T00:12:26.009Z,94249.31
2023-11-10T00:14:53.947Z,94246.94
2023-11-10T00:17:22.047Z,94234.72
2023-11-10T00:19:51.349Z,94237.06
2023-11-10T00:22:19.315Z,94248.88
2023-11-10T00:24:47.359Z,94238.53
2023-11-10T00:27:16.379Z,94230.59
2023-11-10T00:29:46.550Z,94228.59
2023-11-10T00:32:15.066Z,94233.53
2023-11-10T00:34:43.661Z,94235.03
2023-11-10T00:37:13.275Z,94226.72
2023-11-10T00:39:41.453Z,94223.59
2023-11-10T00:42:09.457Z,94212.13
2023-11-10T00:44:37.934Z,94204.13
2023-11-10T00:47:06.237Z,94205.41
2023-11-10T00:49:34.207Z,94210.16
2023-11-10T00:52:02.145Z,94208.66
2023-11-10T00:54:33.600Z,94191.94
2023-11-10T00:57:01.550Z,94197.25
2023-11-10T00:59:29.467Z,94193.22
2023-11-10T01:01:57.643Z,94189.78
2023-11-10T01:04:25.763Z,94184.78
2023-11-10T01:06:53.743Z,94177.91
2023-11-10T01:09:21.868Z,94177.81
2023-11-10T01:11:52.590Z,94170.84
2023-11-10T01:14:22.037Z,94172.56
2023-11-10T01:16:50.127Z,94171.69
2023-11-10T01:19:18.264Z,94164.97
2023-11-10T01:21:48.162Z,94165.28
2023-11-10T01:24:17.838Z,94156.81
2023-11-10T01:26:45.871Z,94154.53
2023-11-10T01:29:15.116Z,94151.00
2023-11-10T01:31:43.022Z,94143.84
2023-11-10T01:34:11.145Z,94138.94
2023-11-10T01:36:39.208Z,94133.44
2023-11-10T01:39:09.551Z,94128.31
2023-11-10T01:41:39.115Z,94122.19
2023-11-10T01:44:07.499Z,94117.06
2023-11-10T01:46:57.886Z,94112.56
2023-11-10T01:49:30.185Z,94105.72
2023-11-10T01:51:58.478Z,94105.56
2023-11-10T01:54:35.423Z,94098.69
2023-11-10T01:57:07.064Z,94094.94
2023-11-10T01:59:37.938Z,94095.00
2023-11-10T02:02:08.820Z,94093.97
2023-11-10T02:04:37.928Z,94089.56
2023-11-10T02:07:06.606Z,94087.25
2023-11-10T02:09:34.584Z,94085.75
2023-11-10T02:12:02.978Z,94089.16
2023-11-10T02:14:33.706Z,94090.97
2023-11-10T02:17:02.015Z,94089.16
2023-11-10T02:19:31.748Z,94084.22
2023-11-10T02:21:59.739Z,94078.78
2023-11-10T02:24:31.071Z,94089.00
2023-11-10T02:27:00.325Z,94088.50
2023-11-10T02:29:28.210Z,94084.84
2023-11-10T02:31:56.777Z,94076.81
2023-11-10T02:34:25.114Z,94073.72
2023-11-10T02:36:53.182Z,94069.34
2023-11-10T02:39:21.072Z,94070.94
2023-11-10T02:41:51.227Z,94056.13
2023-11-10T02:44:20.561Z,94053.84
2023-11-10T02:46:48.672Z,94056.03
2023-11-10T02:49:16.813Z,94052.63
2023-11-10T02:51:45.072Z,94055.78
2023-11-10T02:54:13.015Z,94059.97
2023-11-10T02:56:40.917Z,94060.84
2023-11-10T02:59:12.154Z,94055.31
2023-11-10T03:01:41.418Z,94050.09
2023-11-10T03:04:09.725Z,94041.53
2023-11-10T03:06:37.716Z,94041.59
2023-11-10T03:09:06.110Z,94045.31
2023-11-10T03:11:34.168Z,94047.63
2023-11-10T03:17:48.917Z,94050.63
2023-11-10T03:20:17.155Z,94045.94
2023-11-10T03:22:45.798Z,94045.84
2023-11-10T03:25:13.733Z,94041.06
2023-11-10T03:27:41.755Z,94028.31
2023-11-10T03:30:11.110Z,94033.56
2023-11-10T03:32:39.415Z,94036.56
2023-11-10T03:35:09.805Z,94045.41
2023-11-10T03:37:37.818Z,94044.78
2023-11-10T03:40:07.025Z,94059.34
2023-11-10T03:42:35.076Z,94057.78
2023-11-10T03:45:04.832Z,94062.13
2023-11-10T03:47:33.495Z,94072.84
2023-11-10T03:50:01.445Z,94070.84
2023-11-10T03:52:30.927Z,94071.63
2023-11-10T03:54:58.798Z,94075.19
2023-11-10T03:57:26.726Z,94078.59
2023-11-10T03:59:54.635Z,94072.09
2023-11-10T04:02:22.866Z,94067.91
2023-11-10T04:04:50.777Z,94055.41
2023-11-10T04:07:18.770Z,94059.03
2023-11-10T04:09:48.127Z,94056.03
2023-11-10T04:12:16.101Z,94052.72
2023-11-10T04:14:43.998Z,94045.41
2023-11-10T04:17:11.907Z,94053.22
2023-11-10T04:19:39.829Z,94049.88
2023-11-10T04:22:08.880Z,94050.22
2023-11-10T04:24:36.802Z,94052.94
2023-11-10T04:27:07.271Z,94056.50
2023-11-10T04:29:37.234Z,94054.59
2023-11-10T04:32:05.790Z,94052.41
2023-11-10T04:34:33.868Z,94049.81
2023-11-10T04:37:01.892Z,94050.75
2023-11-10T04:39:29.829Z,94042.44
2023-11-10T04:41:57.724Z,94041.16
2023-11-10T04:44:26.975Z,94031.66
2023-11-10T04:46:54.979Z,94035.53
2023-11-10T04:49:22.911Z,94041.72
2023-11-10T04:51:53.871Z,94034.88
2023-11-10T04:54:21.872Z,94044.91
2023-11-10T04:56:49.781Z,94048.94
2023-11-10T04:59:17.750Z,94052.16
2023-11-10T05:01:47.683Z,94048.84
2023-11-10T05:04:15.806Z,94042.59
2023-11-10T05:06:43.892Z,94048.59
2023-11-10T05:09:11.907Z,94043.13
2023-11-10T05:11:39.881Z,94057.56
2023-11-10T05:14:07.858Z,94051.06
2023-11-10T05:16:35.848Z,94051.06
2023-11-10T05:19:05.476Z,94053.13
2023-11-10T05:21:33.539Z,94055.16
2023-11-10T05:24:01.773Z,94053.28
2023-11-10T05:26:31.309Z,94060.56
2023-11-10T05:28:59.249Z,94062.13
2023-11-10T05:31:27.217Z,94064.19
2023-11-10T05:33:57.016Z,94056.13
2023-11-10T05:36:26.949Z,94067.94
2023-11-10T05:38:54.938Z,94065.63
2023-11-10T05:41:26.008Z,94064.81
2023-11-10T05:43:53.941Z,94073.25
2023-11-10T05:46:23.089Z,94071.47
2023-11-10T05:48:51.140Z,94070.28
2023-11-10T05:51:19.528Z,94075.56
2023-11-10T05:53:48.789Z,94079.59
2023-11-10T05:56:16.722Z,94075.00
2023-11-10T05:58:44.622Z,94079.25
2023-11-10T06:01:12.535Z,94080.03
2023-11-10T06:03:41.119Z,94078.00
2023-11-10T06:06:09.295Z,94082.66
2023-11-10T06:08:37.709Z,94078.72
2023-11-10T06:11:07.123Z,94084.50
2023-11-10T06:13:35.773Z,94082.66
2023-11-10T06:16:06.279Z,94082.13
2023-11-10T06:18:34.273Z,94077.13
2023-11-10T06:21:02.210Z,94080.03
2023-11-10T06:23:30.721Z,94088.94
2023-11-10T06:26:01.335Z,94098.13
2023-11-10T06:28:30.625Z,94090.28
2023-11-10T06:30:59.022Z,94097.38
2023-11-10T06:33:27.240Z,94093.19
2023-11-10T06:35:55.222Z,94105.22
2023-11-10T06:38:23.410Z,94097.47
2023-11-10T06:40:51.345Z,94098.25
2023-11-10T06:43:19.286Z,94096.44
2023-11-10T06:45:48.628Z,94094.34
2023-11-10T06:48:16.924Z,94096.75
2023-11-10T06:50:45.532Z,94089.81
2023-11-10T06:53:13.976Z,94092.06
2023-11-10T06:55:42.087Z,94100.34
2023-11-10T06:58:10.078Z,94094.69
2023-11-10T07:00:38.523Z,94108.94
2023-11-10T07:03:13.385Z,94097.06
2023-11-10T07:05:41.729Z,94089.94
2023-11-10T07:08:12.002Z,94093.81
2023-11-10T07:10:45.469Z,94085.88
2023-11-10T07:13:14.781Z,94095.03
2023-11-10T07:15:43.779Z,94092.91
2023-11-10T07:18:13.685Z,94087.97
2023-11-10T07:20:45.549Z,94094.38
2023-11-10T07:23:14.464Z,94101.53
2023-11-10T07:25:43.392Z,94107.81
2023-11-10T07:28:12.020Z,94102.38
2023-11-10T07:30:41.579Z,94106.38
2023-11-10T07:33:10.305Z,94109.72
2023-11-10T07:35:40.228Z,94119.84
2023-11-10T07:38:09.035Z,94111.72
2023-11-10T07:40:37.564Z,94123.72
2023-11-10T07:43:06.039Z,94127.78
2023-11-10T07:45:36.453Z,94126.59
2023-11-10T07:48:06.388Z,94120.31
2023-11-10T07:50:40.197Z,94131.66
2023-11-10T07:53:09.110Z,94132.53
2023-11-10T07:55:37.039Z,94133.03
2023-11-10T07:58:06.034Z,94126.94
2023-11-10T08:00:34.485Z,94135.78
2023-11-10T08:03:03.309Z,94138.06
2023-11-10T08:05:31.653Z,94138.13
2023-11-10T08:08:03.496Z,94137.25
2023-11-10T08:10:31.434Z,94142.75
2023-11-10T08:12:59.732Z,94133.06
2023-11-10T08:15:27.828Z,94139.88
2023-11-10T08:17:58.075Z,94147.34
2023-11-10T08:20:27.630Z,94138.81
2023-11-10T08:22:55.784Z,94148.25
2023-11-10T08:25:25.597Z,94159.53
2023-11-10T08:27:55.869Z,94165.63
2023-11-10T08:30:24.158Z,94156.34
2023-11-10T08:32:52.285Z,94152.63
2023-11-10T08:35:21.229Z,94161.69
2023-11-10T08:37:49.134Z,94159.34
2023-11-10T08:40:17.809Z,94171.97
2023-11-10T08:42:47.109Z,94162.66
2023-11-10T08:45:16.698Z,94157.00
2023-11-10T08:47:45.288Z,94158.16
2023-11-10T08:50:17.180Z,94167.91
2023-11-10T08:52:47.998Z,94176.13
2023-11-10T08:55:22.227Z,94166.41
2023-11-10T08:57:52.922Z,94159.06
2023-11-10T09:00:21.209Z,94160.13
2023-11-10T09:02:50.749Z,94168.00
2023-11-10T09:05:21.461Z,94170.63
2023-11-10T09:07:49.442Z,94158.47
2023-11-10T09:10:17.974Z,94158.19
2023-11-10T09:12:49.450Z,94155.25
2023-11-10T09:15:19.597Z,94157.84
2023-11-10T09:17:49.210Z,94155.72
2023-11-10T09:20:22.217Z,94156.75
2023-11-10T09:22:51.148Z,94150.41
2023-11-10T09:25:21.576Z,94153.28
2023-11-10T09:27:49.832Z,94156.16
2023-11-10T09:30:19.292Z,94150.88
2023-11-10T09:32:47.313Z,94148.75
2023-11-10T09:35:18.006Z,94145.59
2023-11-10T09:37:47.640Z,94144.25
2023-11-10T09:40:17.998Z,94136.38
2023-11-10T09:42:46.524Z,94137.69
2023-11-10T09:45:18.760Z,94138.19
2023-11-10T09:47:48.992Z,94136.09
2023-11-10T09:50:19.375Z,94135.56
2023-11-10T09:52:51.892Z,94134.75
2023-11-10T09:55:22.523Z,94140.00
2023-11-10T09:57:53.464Z,94136.66
2023-11-10T10:00:23.433Z,94137.00
2023-11-10T10:02:52.891Z,94135.50
2023-11-10T10:05:22.317Z,94143.75
2023-11-10T10:07:50.455Z,94141.38
2023-11-10T10:10:22.686Z,94146.16
2023-11-10T10:12:50.710Z,94136.44
2023-11-10T10:15:28.220Z,94147.50
2023-11-10T10:18:05.717Z,94145.13
2023-11-10T10:20:36.432Z,94132.50
2023-11-10T10:23:06.176Z,94132.72
2023-11-10T10:25:34.120Z,94120.59
2023-11-10T10:28:04.969Z,94108.66
2023-11-10T10:30:33.948Z,94111.72
2023-11-10T10:33:03.386Z,94110.03
2023-11-10T10:35:31.307Z,94114.28
2023-11-10T10:38:05.909Z,94108.56
2023-11-10T10:40:36.977Z,94099.63
2023-11-10T10:43:05.845Z,94101.81
2023-11-10T10:45:38.177Z,94094.75
2023-11-10T10:48:08.086Z,94101.38
2023-11-10T10:50:38.355Z,94101.16
2023-11-10T10:53:09.393Z,94089.09
2023-11-10T10:55:40.713Z,94095.13
2023-11-10T10:58:09.780Z,94088.31
2023-11-10T11:00:39.367Z,94089.88
2023-11-10T11:03:35.243Z,94094.63
2023-11-10T11:06:20.449Z,94095.66
2023-11-10T11:09:11.358Z,94087.50
2023-11-10T11:12:09.197Z,94094.06
2023-11-10T11:14:46.141Z,94094.06
2023-11-10T11:17:53.921Z,94084.84
2023-11-10T11:20:24.431Z,94093.78
2023-11-10T11:22:52.850Z,94088.78
2023-11-10T11:25:21.818Z,94086.69
2023-11-10T11:27:59.099Z,94080.13
2023-11-10T11:30:37.549Z,94086.94
2023-11-10T11:33:08.131Z,94088.78
2023-11-10T11:35:47.669Z,94092.47
2023-11-10T11:38:30.260Z,94085.38
2023-11-10T11:40:59.399Z,94086.41
2023-11-10T11:43:30.129Z,94089.31
2023-11-10T11:45:59.528Z,94085.41
2023-11-10T11:48:27.668Z,94084.31
2023-11-10T11:50:58.145Z,94080.13
2023-11-10T11:53:27.079Z,94074.63
2023-11-10T11:55:56.571Z,94086.47
2023-11-10T11:58:26.848Z,94095.69
2023-11-10T12:00:55.260Z,94081.22
2023-11-10T12:03:23.470Z,94086.47
2023-11-10T12:05:52.289Z,94069.38
2023-11-10T12:08:22.806Z,94082.00
2023-11-10T12:10:51.199Z,94078.06
2023-11-10T12:13:20.677Z,94069.38
2023-11-10T12:15:49.473Z,94065.16
2023-11-10T12:18:19.444Z,94071.44
2023-11-10T12:20:47.974Z,94080.69
2023-11-10T12:23:15.890Z,94071.72
2023-11-10T12:25:46.175Z,94075.94
2023-11-10T12:28:14.965Z,94073.56
2023-11-10T12:30:43.774Z,94074.34
2023-11-10T12:33:12.154Z,94077.50
2023-11-10T12:35:41.287Z,94069.34
2023-11-10T12:38:09.997Z,94069.31
2023-11-10T12:40:39.378Z,94074.81
2023-11-10T12:43:09.981Z,94063.25
2023-11-10T12:45:38.322Z,94071.69
2023-11-10T12:48:14.017Z,94068.00
2023-11-10T12:50:42.269Z,94058.25
2023-11-10T12:53:11.232Z,94052.97
2023-11-10T12:55:39.783Z,94052.94
2023-11-10T12:58:10.287Z,94048.44
2023-11-10T13:00:39.439Z,94046.56
2023-11-10T13:03:07.563Z,94035.75
2023-11-10T13:05:38.971Z,94035.19
2023-11-10T13:08:06.970Z,94030.22
2023-11-10T13:10:35.036Z,94027.81
2023-11-10T13:13:03.271Z,94032.56
2023-11-10T13:15:33.547Z,94036.78
2023-11-10T13:18:02.640Z,94026.22
2023-11-10T13:20:36.068Z,94027.28
2023-11-10T13:23:04.660Z,94030.50
2023-11-10T13:25:32.576Z,94032.06
2023-11-10T13:28:00.880Z,94036.53
2023-11-10T13:30:31.383Z,94042.88
2023-11-10T13:33:00.767Z,94042.06
2023-11-10T13:35:28.858Z,94040.19
2023-11-10T13:37:57.968Z,94035.94
2023-11-10T13:40:26.001Z,94034.88
2023-11-10T13:42:53.952Z,94034.34
2023-11-10T13:45:22.195Z,94035.13
2023-11-10T13:47:52.666Z,94036.16
2023-11-10T13:50:22.064Z,94034.97
2023-11-10T13:52:52.722Z,94041.97
2023-11-10T13:55:20.707Z,94050.34
2023-11-10T13:57:48.956Z,94046.81
2023-11-10T14:00:18.551Z,94052.13
2023-11-10T14:02:46.564Z,94051.38
2023-11-10T14:05:15.497Z,94053.50
2023-11-10T14:07:46.155Z,94050.66
2023-11-10T14:10:14.345Z,94055.16
2023-11-10T14:12:44.474Z,94057.81
2023-11-10T14:15:15.735Z,94065.56
2023-11-10T14:17:48.432Z,94062.16
2023-11-10T14:20:16.544Z,94058.25
2023-11-10T14:22:46.108Z,94066.94
2023-11-10T14:25:14.091Z,94063.78
2023-11-10T14:27:42.108Z,94066.13
2023-11-10T14:30:15.889Z,94059.19
2023-11-10T14:32:44.540Z,94062.28
2023-11-10T14:35:12.684Z,94065.88
2023-11-10T14:37:42.696Z,94070.06
2023-11-10T14:40:19.202Z,94066.63
2023-11-10T14:42:50.069Z,94062.38
2023-11-10T14:45:22.618Z,94069.97
2023-11-10T14:47:52.438Z,94069.97
2023-11-10T14:50:35.697Z,94073.44
2023-11-10T14:53:07.715Z,94065.31
2023-11-10T14:55:37.096Z,94067.97
2023-11-10T14:58:05.240Z,94071.50
2023-11-10T15:00:34.438Z,94067.22
2023-11-10T15:03:05.718Z,94071.06
2023-11-10T15:05:35.634Z,94073.75
2023-11-10T15:08:05.424Z,94071.44
2023-11-10T15:10:38.745Z,94069.63
2023-11-10T15:13:10.377Z,94062.28
2023-11-10T15:15:39.326Z,94062.81
2023-11-10T15:18:10.410Z,94058.56
2023-11-10T15:20:38.919Z,94070.13
2023-11-10T15:23:07.113Z,94068.56
2023-11-10T15:25:35.114Z,94066.19
2023-11-10T15:28:03.160Z,94063.03
2023-11-10T15:30:34.871Z,94064.56
2023-11-10T15:33:05.073Z,94058.53
2023-11-10T15:35:33.569Z,94070.06
2023-11-10T15:38:01.607Z,94063.22
2023-11-10T15:40:30.104Z,94056.41
2023-11-10T15:42:58.689Z,94064.53
2023-11-10T15:45:26.609Z,94066.31
2023-11-10T15:47:55.976Z,94059.19
2023-11-10T15:50:24.167Z,94059.72
2023-11-10T15:52:55.511Z,94066.53
2023-11-10T15:55:23.445Z,94070.47
2023-11-10T15:57:53.415Z,94065.19
2023-11-10T16:00:22.217Z,94062.81
2023-11-10T16:02:51.441Z,94072.78
2023-11-10T16:05:21.291Z,94077.19
2023-11-10T16:07:49.669Z,94080.31
2023-11-10T16:10:17.856Z,94074.50
2023-11-10T16:12:46.245Z,94074.78
2023-11-10T16:15:14.396Z,94072.41
2023-11-10T16:17:42.313Z,94086.25
2023-11-10T16:20:13.288Z,94086.00
2023-11-10T16:22:43.985Z,94092.50
2023-11-10T16:25:12.214Z,94100.66
2023-11-10T16:27:41.501Z,94105.88
2023-11-10T16:30:10.909Z,94098.28
2023-11-10T16:32:40.136Z,94103.78
2023-11-10T16:35:08.489Z,94101.38
2023-11-10T16:37:39.157Z,94099.81
2023-11-10T16:40:11.481Z,94101.88
2023-11-10T16:42:39.666Z,94089.28
2023-11-10T16:45:09.228Z,94094.78
2023-11-10T16:47:37.289Z,94095.53
2023-11-10T16:50:05.818Z,94095.00
2023-11-10T16:52:33.770Z,94095.78
2023-11-10T16:55:01.818Z,94104.69
2023-11-10T16:57:36.593Z,94105.97
2023-11-10T17:00:08.230Z,94102.03
2023-11-10T17:02:44.646Z,94097.28
2023-11-10T17:05:16.065Z,94097.28
2023-11-10T17:07:44.080Z,94094.91
2023-11-10T17:10:12.157Z,94103.56
2023-11-10T17:12:42.716Z,94100.66
2023-11-10T17:15:12.084Z,94107.97
2023-11-10T17:17:42.708Z,94108.75
2023-11-10T17:20:13.149Z,94100.56
2023-11-10T17:22:41.197Z,94107.91
2023-11-10T17:25:09.849Z,94109.22
2023-11-10T17:27:38.439Z,94113.88
2023-11-10T17:30:09.154Z,94112.31
2023-11-10T17:32:37.464Z,94115.97
2023-11-10T17:35:06.133Z,94105.75
2023-11-10T17:37:34.181Z,94107.81
2023-11-10T17:40:06.522Z,94099.41
2023-11-10T17:42:35.889Z,94094.13
2023-11-10T17:45:04.906Z,94104.59
2023-11-10T17:47:34.736Z,94100.34
2023-11-10T17:50:06.106Z,94111.09
2023-11-10T17:52:34.019Z,94106.84
2023-11-10T17:55:03.280Z,94108.38
2023-11-10T17:57:31.287Z,94114.91
2023-11-10T17:59:59.291Z,94118.56
2023-11-10T18:02:28.001Z,94110.16
2023-11-10T18:05:00.424Z,94115.09
2023-11-10T18:07:29.225Z,94113.78
2023-11-10T18:09:57.259Z,94121.88
2023-11-10T18:12:25.225Z,94120.31
2023-11-10T18:14:53.373Z,94118.09
2023-11-10T18:17:22.105Z,94114.66
2023-11-10T18:19:50.134Z,94118.53
2023-11-10T18:22:20.027Z,94115.94
2023-11-10T18:24:51.505Z,94118.47
2023-11-10T18:27:22.520Z,94111.66
2023-11-10T18:29:50.644Z,94122.66
2023-11-10T18:32:18.653Z,94122.56
2023-11-10T18:34:46.820Z,94128.31
2023-11-10T18:37:15.271Z,94125.91
2023-11-10T18:39:46.819Z,94120.16
2023-11-10T18:42:15.123Z,94125.56
2023-11-10T18:44:43.104Z,94127.94
2023-11-10T18:47:11.060Z,94119.00
2023-11-10T18:49:41.116Z,94126.00
2023-11-10T18:52:09.228Z,94127.25
2023-11-10T18:54:37.366Z,94132.69
2023-11-10T18:57:07.597Z,94121.44
2023-11-10T18:59:38.692Z,94121.59
2023-11-10T19:02:06.716Z,94122.47
2023-11-10T19:04:34.593Z,94128.19
2023-11-10T19:07:02.681Z,94123.50
2023-11-10T19:09:30.727Z,94136.91
2023-11-10T19:11:59.752Z,94129.75
2023-11-10T19:14:30.416Z,94140.28
2023-11-10T19:16:58.497Z,94145.50
2023-11-10T19:19:26.637Z,94143.94
2023-11-10T19:21:54.629Z,94147.34
2023-11-10T19:24:22.725Z,94143.38
2023-11-10T19:26:50.816Z,94149.41
2023-11-10T19:29:18.812Z,94150.44
2023-11-10T19:31:49.859Z,94152.72
2023-11-10T19:34:17.800Z,94147.50
2023-11-10T19:36:46.445Z,94142.03
2023-11-10T19:39:16.095Z,94144.72
2023-11-10T19:41:44.151Z,94153.09
2023-11-10T19:44:14.960Z,94145.34
2023-11-10T19:46:43.921Z,94141.94
2023-11-10T19:49:13.490Z,94145.34
2023-11-10T19:56:52.861Z,94148.13
2023-11-10T19:59:23.572Z,94147.88
2023-11-10T20:01:53.004Z,94148.59
2023-11-10T20:04:22.489Z,94147.75
2023-11-10T20:06:51.163Z,94148.50
2023-11-10T20:09:19.432Z,94134.34
2023-11-10T20:11:47.581Z,94134.63
2023-11-10T20:14:15.542Z,94139.53
2023-11-10T20:16:44.656Z,94139.91
2023-11-10T20:19:12.750Z,94142.34
2023-11-10T20:21:42.085Z,94139.84
2023-11-10T20:24:10.785Z,94136.81
2023-11-10T20:26:38.927Z,94132.31
2023-11-10T20:29:07.163Z,94138.53
2023-11-10T20:31:35.288Z,94133.72
2023-11-10T20:34:04.686Z,94128.88
2023-11-10T20:36:32.791Z,94118.53
2023-11-10T20:39:03.069Z,94114.63
2023-11-10T20:41:32.494Z,94107.38
2023-11-10T20:44:00.455Z,94103.22
2023-11-10T20:46:31.096Z,94104.59
2023-11-10T20:48:59.169Z,94094.94
2023-11-10T20:51:27.720Z,94096.75
2023-11-10T20:53:55.793Z,94099.38
2023-11-10T20:56:26.363Z,94096.50
2023-11-10T20:58:54.407Z,94101.97
2023-11-10T21:01:23.755Z,94093.81
2023-11-10T21:03:51.987Z,94095.63
2023-11-10T21:06:21.849Z,94089.13
2023-11-10T21:08:50.388Z,94087.88
2023-11-10T21:11:19.982Z,94088.25
2023-11-10T21:13:54.125Z,94089.94
2023-11-10T21:16:23.382Z,94092.00
2023-11-10T21:18:51.392Z,94085.16
2023-11-10T21:21:20.720Z,94085.72
2023-11-10T21:23:48.722Z,94077.72
2023-11-10T21:26:20.369Z,94080.38
2023-11-10T21:28:52.519Z,94073.41
2023-11-10T21:31:20.467Z,94066.13
2023-11-10T21:33:48.465Z,94069.03
2023-11-10T21:36:16.460Z,94057.81
2023-11-10T21:38:44.637Z,94058.34
2023-11-10T21:41:12.535Z,94052.91
2023-11-10T21:43:40.472Z,94055.00
2023-11-10T21:46:09.895Z,94048.50
2023-11-10T21:48:37.916Z,94048.03
2023-11-10T21:51:07.431Z,94044.84
2023-11-10T21:53:35.603Z,94043.50
2023-11-10T21:56:03.949Z,94036.63
2023-11-10T21:58:32.004Z,94036.56
2023-11-10T22:00:59.929Z,94033.34
2023-11-10T22:03:29.300Z,94034.31
2023-11-10T22:05:57.327Z,94030.28
2023-11-10T22:08:26.294Z,94032.06
2023-11-10T22:10:54.292Z,94025.16
2023-11-10T22:13:22.348Z,94019.88
2023-11-10T22:15:50.360Z,94013.31
2023-11-10T22:18:18.394Z,94012.75
2023-11-10T22:20:47.782Z,94014.47
2023-11-10T22:23:15.708Z,94010.78
2023-11-10T22:25:43.797Z,93997.09
2023-11-10T22:28:11.703Z,93991.47
2023-11-10T22:30:39.784Z,93988.22
2023-11-10T22:33:08.060Z,93988.19
2023-11-10T22:35:38.072Z,93985.00
2023-11-10T22:38:08.444Z,93989.44
2023-11-10T22:40:37.039Z,93982.63
2023-11-10T22:43:05.131Z,93979.47
2023-11-10T22:45:33.465Z,93984.38
2023-11-10T22:48:01.507Z,93973.47
2023-11-10T22:50:31.888Z,93971.91
2023-11-10T22:52:59.955Z,93974.19
2023-11-10T22:55:32.206Z,93966.94
2023-11-10T22:58:00.906Z,93977.19
2023-11-10T23:00:34.032Z,93970.81
2023-11-10T23:03:05.159Z,93973.38
2023-11-10T23:05:33.350Z,93980.03
2023-11-10T23:08:01.318Z,93970.13
2023-11-10T23:10:32.622Z,93971.88
2023-11-10T23:13:02.664Z,93971.22
2023-11-10T23:15:30.768Z,93968.91
2023-11-10T23:18:00.020Z,93965.13
2023-11-10T23:20:34.688Z,93963.03
2023-11-10T23:23:05.095Z,93958.44
2023-11-10T23:25:38.897Z,93955.78
2023-11-10T23:28:07.399Z,93961.19
2023-11-10T23:30:37.121Z,93956.00
2023-11-10T23:33:07.719Z,93954.03
2023-11-10T23:35:39.911Z,93946.72
2023-11-10T23:38:12.129Z,93950.50
2023-11-10T23:40:41.435Z,93951.50
2023-11-10T23:43:09.342Z,93940.94
2023-11-10T23:45:37.414Z,93946.75
2023-11-10T23:48:07.266Z,93939.13
2023-11-10T23:50:38.225Z,93932.75
2023-11-10T23:53:08.370Z,93931.41
2023-11-10T23:55:36.638Z,93928.06
2023-11-10T23:58:07.916Z,93931.31
